University Park, New Mexico
Current Conditions -  °F | °C
As of 9:55 AM on Saturday 25 Oct 2014 (Local Time) from KLRU Reporting Station
Clear Clear  
Wind Chill: 69°   Ceiling: Unl
Heat Index: 69°   Visibility: 10mi
Dew Point: 47°   Wind: 3mph
Humidity: 45%   Direction: 110°ESE
Pressure: 30.29"   Gusts: NA
Location:  32.2825°N, 106.737°W
Report Text: KLRU 251555Z AUTO 11003KT 10SM CLR 21/08 A3029 RMK AO2 T02050081 PWINO
Loading
Personal Weather Stations






























Interactive Weather Map New forecast layout! Learn more

10-Day Weather Forecast

Advertisements
Track Severe Weather on mobile